Time;durP1;ratioP1;P1;durP2;ratioP2;P2;SDS_P1;SDS_P2;PMS_P1;PMS_P2;Temp;Humidity;BMP_temperature;BMP_pressure;BME280_temperature;BME280_humidity;BME280_pressure;Samples;Min_cycle;Max_cycle;Signal;HPM_P1;HPM_P2
2020/12/17 00:00:41;;;;;;;21.58;13.75;;;;;;;11.76;76.69;101272.22;5043375;28;20124;-86
2020/12/17 00:03:07;;;;;;;31.85;18.02;;;;;;;11.78;76.73;101274.81;5046872;28;20078;-85
2020/12/17 00:05:33;;;;;;;27.48;16.30;;;;;;;11.79;76.79;101282.72;5038474;28;20045;-85
2020/12/17 00:07:59;;;;;;;26.92;15.82;;;;;;;11.81;76.84;101280.84;5040948;28;20041;-85
2020/12/17 00:10:25;;;;;;;27.30;17.02;;;;;;;11.84;77.04;101280.69;5034998;28;20045;-84
2020/12/17 00:12:51;;;;;;;26.48;17.23;;;;;;;11.86;76.96;101278.84;5007591;28;20064;-84
2020/12/17 00:15:19;;;;;;;27.77;17.38;;;;;;;11.88;76.89;101265.50;5038108;28;20069;-86
2020/12/17 00:17:50;;;;;;;29.92;18.08;;;;;;;11.88;76.49;101271.69;5038557;28;20124;-85
2020/12/17 00:20:19;;;;;;;29.00;17.13;;;;;;;11.87;76.68;101285.03;5021474;28;20099;-85
2020/12/17 00:22:45;;;;;;;31.65;18.70;;;;;;;11.86;76.59;101281.50;5036520;28;20037;-84
2020/12/17 00:25:13;;;;;;;27.10;17.15;;;;;;;11.85;76.53;101287.75;5037410;28;20057;-86
2020/12/17 00:27:40;;;;;;;31.27;19.42;;;;;;;11.83;76.77;101286.94;5020573;28;20051;-84
2020/12/17 00:30:09;;;;;;;31.48;18.48;;;;;;;11.82;77.02;101293.19;5037517;28;20047;-85
2020/12/17 00:32:36;;;;;;;32.80;20.90;;;;;;;11.82;76.57;101282.56;5038685;28;20396;-85
2020/12/17 00:35:03;;;;;;;35.53;21.25;;;;;;;11.81;76.45;101286.16;5037162;28;20054;-84
2020/12/17 00:37:31;;;;;;;33.25;19.80;;;;;;;11.79;76.55;101277.41;5037213;28;20485;-85
2020/12/17 00:39:57;;;;;;;34.78;20.20;;;;;;;11.76;76.47;101277.53;5020480;28;20505;-85
2020/12/17 00:42:23;;;;;;;36.83;21.10;;;;;;;11.72;76.39;101275.94;5036566;28;20754;-85
2020/12/17 00:44:49;;;;;;;34.08;20.00;;;;;;;11.68;76.38;101271.69;5020258;28;20091;-86
2020/12/17 00:47:16;;;;;;;31.38;19.35;;;;;;;11.65;76.67;101277.13;5036936;28;20069;-86
2020/12/17 00:49:43;;;;;;;33.80;18.92;;;;;;;11.62;76.44;101282.53;5036906;28;20068;-85
2020/12/17 00:52:10;;;;;;;37.58;22.30;;;;;;;11.60;76.50;101279.09;5036574;28;20083;-85
2020/12/17 00:54:40;;;;;;;38.53;21.98;;;;;;;11.58;76.62;101288.91;5033572;28;20041;-85
2020/12/17 00:57:07;;;;;;;34.85;20.00;;;;;;;11.54;76.47;101292.63;5030952;28;20527;-85
2020/12/17 00:59:33;;;;;;;38.33;21.50;;;;;;;11.54;76.50;101271.41;5040972;28;20045;-85
2020/12/17 01:01:59;;;;;;;36.58;21.65;;;;;;;11.52;76.74;101278.56;5025469;28;20053;-85
2020/12/17 01:04:25;;;;;;;42.55;22.55;;;;;;;11.49;76.46;101285.72;5052942;28;20053;-84
2020/12/17 01:07:02;;;;;;;44.28;23.73;;;;;;;11.48;76.59;101284.00;5036979;28;20132;-84
2020/12/17 01:09:28;;;;;;;36.13;21.08;;;;;;;11.48;76.66;101278.69;5017097;28;20041;-85
2020/12/17 01:11:54;;;;;;;34.08;20.08;;;;;;;11.46;76.74;101275.25;5029208;28;20067;-85
2020/12/17 01:14:20;;;;;;;39.47;21.00;;;;;;;11.46;76.76;101274.38;5035690;28;20136;-85
2020/12/17 01:16:47;;;;;;;38.97;22.48;;;;;;;11.46;76.65;101280.53;5038038;28;20124;-85
2020/12/17 01:19:13;;;;;;;40.00;22.45;;;;;;;11.46;76.66;101274.38;5022168;28;20045;-85
2020/12/17 01:21:40;;;;;;;37.88;21.30;;;;;;;11.46;76.67;101274.38;5057315;28;20041;-85
2020/12/17 01:24:06;;;;;;;42.63;23.48;;;;;;;11.45;76.75;101257.63;5039226;28;20045;-85
2020/12/17 01:26:32;;;;;;;34.10;19.58;;;;;;;11.45;76.90;101252.31;5036571;28;20061;-85
2020/12/17 01:28:58;;;;;;;32.67;19.67;;;;;;;11.47;76.96;101255.75;5036926;28;20038;-86
2020/12/17 01:31:24;;;;;;;34.83;20.95;;;;;;;11.47;76.82;101255.75;5035863;28;20404;-85
2020/12/17 01:33:50;;;;;;;33.33;18.90;;;;;;;11.48;76.95;101262.78;5025804;28;20038;-85
2020/12/17 01:36:16;;;;;;;29.25;18.00;;;;;;;11.50;76.86;101260.91;5018304;28;20076;-85
2020/12/17 01:38:42;;;;;;;38.95;22.10;;;;;;;11.52;76.82;101273.25;5031855;28;20066;-85
2020/12/17 01:41:12;;;;;;;29.33;18.17;;;;;;;11.53;76.79;101269.66;5063759;28;20031;-84
2020/12/17 01:43:43;;;;;;;35.25;18.73;;;;;;;11.53;76.86;101259.06;5063253;28;20441;-85
2020/12/17 01:46:11;;;;;;;35.45;21.13;;;;;;;11.53;76.82;101264.34;5051754;28;20037;-84
2020/12/17 01:48:38;;;;;;;33.50;19.80;;;;;;;11.55;76.71;101267.84;5043098;28;20041;-84
2020/12/17 01:51:05;;;;;;;31.13;18.25;;;;;;;11.55;76.81;101273.16;5041129;28;20037;-86
2020/12/17 01:53:41;;;;;;;29.45;17.73;;;;;;;11.55;76.99;101278.44;5013198;28;20132;-85
2020/12/17 01:56:28;;;;;;;31.67;18.13;;;;;;;11.54;76.83;101274.06;5020888;28;20115;-86
2020/12/17 01:59:12;;;;;;;41.33;20.33;;;;;;;11.54;76.78;101282.03;5021805;28;20045;-85
2020/12/17 02:01:49;;;;;;;37.85;22.30;;;;;;;11.53;76.69;101280.28;5042396;28;20127;-85
2020/12/17 02:04:18;;;;;;;36.15;20.35;;;;;;;11.52;76.98;101283.88;5037872;28;20474;-86
2020/12/17 02:06:45;;;;;;;33.58;19.23;;;;;;;11.51;76.92;101272.41;5034264;28;20053;-86
2020/12/17 02:09:11;;;;;;;35.63;19.30;;;;;;;11.50;76.99;101275.97;5017826;28;20047;-85
2020/12/17 02:11:37;;;;;;;27.38;16.10;;;;;;;11.52;77.10;101267.97;5024054;28;20054;-86
2020/12/17 02:14:03;;;;;;;30.38;18.58;;;;;;;11.53;77.09;101270.56;5020231;28;20076;-86
2020/12/17 02:16:29;;;;;;;29.55;17.83;;;;;;;11.56;77.12;101269.56;5046184;28;20041;-85
2020/12/17 02:18:55;;;;;;;29.05;17.02;;;;;;;11.56;77.06;101264.25;5034657;28;20076;-86
2020/12/17 02:21:22;;;;;;;29.45;16.23;;;;;;;11.57;77.09;101265.97;5015953;28;20042;-86
2020/12/17 02:23:48;;;;;;;25.80;15.90;;;;;;;11.56;76.99;101269.56;5028363;28;20053;-86
2020/12/17 02:26:14;;;;;;;24.63;14.00;;;;;;;11.56;76.96;101270.41;5037094;28;20033;-86
2020/12/17 02:28:41;;;;;;;23.55;14.32;;;;;;;11.57;77.13;101271.28;5035978;28;20053;-85
2020/12/17 02:31:08;;;;;;;22.30;14.27;;;;;;;11.58;76.93;101263.25;5037994;28;20053;-85
2020/12/17 02:33:34;;;;;;;22.13;13.65;;;;;;;11.60;77.19;101265.84;5036048;28;20042;-86
2020/12/17 02:36:00;;;;;;;24.45;14.55;;;;;;;11.62;77.06;101263.97;5035828;28;20108;-85
2020/12/17 02:38:26;;;;;;;19.88;13.32;;;;;;;11.62;77.15;101261.31;5018223;28;20041;-84
2020/12/17 02:40:52;;;;;;;26.85;15.40;;;;;;;11.64;77.05;101251.50;5044433;28;20037;-86
2020/12/17 02:43:19;;;;;;;20.27;12.82;;;;;;;11.66;77.04;101255.84;5035091;28;20047;-86
2020/12/17 02:45:46;;;;;;;21.20;12.73;;;;;;;11.67;77.14;101248.72;5016814;28;20045;-85
2020/12/17 02:48:13;;;;;;;21.95;13.73;;;;;;;11.69;77.13;101254.84;5033922;28;20136;-86
2020/12/17 02:50:40;;;;;;;21.48;13.43;;;;;;;11.72;77.08;101254.72;5033447;28;20068;-85
2020/12/17 02:53:07;;;;;;;23.77;14.50;;;;;;;11.73;77.24;101245.81;5033726;28;20045;-86
2020/12/17 02:55:33;;;;;;;23.42;12.38;;;;;;;11.77;77.25;101239.47;5037815;28;20121;-85
2020/12/17 02:57:59;;;;;;;21.25;14.00;;;;;;;11.79;77.21;101240.25;5032911;28;20519;-86
2020/12/17 03:00:26;;;;;;;25.48;13.98;;;;;;;11.83;77.17;101252.44;5033104;28;20046;-86
2020/12/17 03:02:52;;;;;;;21.55;13.32;;;;;;;11.86;77.15;101239.03;5032772;28;20045;-86
2020/12/17 03:05:18;;;;;;;18.08;11.52;;;;;;;11.91;77.16;101253.94;5033539;28;20052;-86
2020/12/17 03:07:48;;;;;;;22.05;13.80;;;;;;;11.93;77.15;101239.66;5020004;28;20045;-86
2020/12/17 03:10:14;;;;;;;21.55;13.57;;;;;;;11.95;77.04;101244.91;5017441;28;20132;-85
2020/12/17 03:12:44;;;;;;;21.33;14.85;;;;;;;11.97;76.93;101248.34;5046883;28;20045;-85
2020/12/17 03:15:11;;;;;;;17.33;11.77;;;;;;;11.97;76.78;101253.66;5047873;28;20037;-85
2020/12/17 03:17:37;;;;;;;25.13;13.73;;;;;;;12.00;77.05;101248.22;5040656;28;20041;-85
2020/12/17 03:20:06;;;;;;;20.63;11.68;;;;;;;12.00;76.86;101248.22;5020516;28;20046;-85
2020/12/17 03:22:32;;;;;;;21.13;12.38;;;;;;;12.01;76.90;101244.63;5029483;28;20056;-86
2020/12/17 03:24:59;;;;;;;17.48;12.13;;;;;;;12.04;77.18;101239.19;5046815;28;20080;-86
2020/12/17 03:27:25;;;;;;;15.32;10.63;;;;;;;12.07;77.10;101249.66;5035690;28;20038;-86
2020/12/17 03:29:51;;;;;;;17.58;10.88;;;;;;;12.10;77.17;101254.84;5037139;28;20047;-85
2020/12/17 03:32:17;;;;;;;18.27;11.15;;;;;;;12.13;77.19;101248.53;5015811;28;20394;-86
2020/12/17 03:34:43;;;;;;;22.42;12.63;;;;;;;12.13;77.21;101249.41;5043106;28;20132;-86
2020/12/17 03:37:09;;;;;;;17.90;12.05;;;;;;;12.15;77.17;101247.53;5029593;28;20049;-86
2020/12/17 03:39:36;;;;;;;18.90;11.45;;;;;;;12.17;77.02;101250.97;5017868;28;20041;-85
2020/12/17 03:42:03;;;;;;;21.52;12.65;;;;;;;12.17;77.11;101245.69;5022476;28;20045;-86
2020/12/17 03:44:30;;;;;;;13.63;10.00;;;;;;;12.19;77.08;101248.25;5034155;28;20139;-86
2020/12/17 03:46:57;;;;;;;20.33;12.70;;;;;;;12.20;77.38;101240.19;5032400;28;20053;-85
2020/12/17 03:49:23;;;;;;;22.80;11.75;;;;;;;12.20;77.05;101234.91;5046314;28;20049;-86
2020/12/17 03:51:49;;;;;;;22.20;13.85;;;;;;;12.20;77.11;101240.19;5032936;28;20087;-86
2020/12/17 03:54:16;;;;;;;22.00;13.98;;;;;;;12.21;77.08;101241.09;5031769;28;20050;-86
2020/12/17 03:56:42;;;;;;;25.17;13.77;;;;;;;12.21;77.13;101247.25;5031808;28;20049;-86
2020/12/17 03:59:08;;;;;;;20.80;13.13;;;;;;;12.22;77.20;101253.41;5050356;23;20049;-81
2020/12/17 04:01:34;;;;;;;24.50;13.50;;;;;;;12.21;77.26;101247.25;5065936;28;20100;-81
2020/12/17 04:04:00;;;;;;;23.08;13.10;;;;;;;12.22;77.08;101243.69;5057627;28;20052;-81
2020/12/17 04:06:26;;;;;;;21.92;11.43;;;;;;;12.23;77.16;101245.38;5051842;28;20073;-81
2020/12/17 04:08:57;;;;;;;22.67;13.10;;;;;;;12.23;77.03;101239.22;5043626;28;20043;-81
2020/12/17 04:11:23;;;;;;;23.25;13.00;;;;;;;12.23;77.26;101244.53;5057733;28;20059;-81
2020/12/17 04:13:49;;;;;;;25.05;14.90;;;;;;;12.22;77.21;101249.00;5045186;28;20489;-81
2020/12/17 04:16:15;;;;;;;22.25;13.45;;;;;;;12.23;77.34;101255.16;5060279;28;20048;-81
2020/12/17 04:18:41;;;;;;;23.80;13.48;;;;;;;12.23;77.28;101248.03;5057825;28;20049;-81
2020/12/17 04:21:08;;;;;;;20.38;11.65;;;;;;;12.24;77.32;101251.56;5050293;28;20535;-80
2020/12/17 04:23:34;;;;;;;21.45;13.30;;;;;;;12.26;77.28;101255.88;5062719;28;20040;-81
2020/12/17 04:26:00;;;;;;;25.50;13.32;;;;;;;12.26;77.41;101249.69;5046204;28;20117;-81
2020/12/17 04:28:26;;;;;;;22.60;13.55;;;;;;;12.27;77.35;101252.28;5059708;28;20045;-81
2020/12/17 04:30:54;;;;;;;24.23;12.82;;;;;;;12.30;77.42;101255.72;5067060;28;20068;-80
2020/12/17 04:33:20;;;;;;;25.65;14.70;;;;;;;12.30;77.34;101250.41;5070629;28;20063;-80
2020/12/17 04:35:47;;;;;;;26.13;13.95;;;;;;;12.29;77.33;101254.00;5065275;28;20067;-81
2020/12/17 04:38:13;;;;;;;22.63;12.35;;;;;;;12.30;77.31;101261.91;5054372;28;20045;-79
2020/12/17 04:40:39;;;;;;;23.65;13.32;;;;;;;12.30;77.25;101258.38;5065561;28;20045;-80
2020/12/17 04:43:06;;;;;;;25.17;12.75;;;;;;;12.29;77.27;101261.97;5080871;28;20049;-79
2020/12/17 04:45:32;;;;;;;25.05;13.20;;;;;;;12.29;77.32;101261.97;5062532;28;20116;-79
2020/12/17 04:48:04;;;;;;;21.92;13.13;;;;;;;12.27;77.50;101260.25;5056187;28;20512;-79
2020/12/17 04:50:32;;;;;;;33.97;16.15;;;;;;;12.27;77.56;101262.91;5065644;28;20041;-79
2020/12/17 04:53:01;;;;;;;26.73;15.60;;;;;;;12.27;77.43;101267.34;5063764;28;20419;-80
2020/12/17 04:55:28;;;;;;;27.10;14.50;;;;;;;12.27;77.37;101270.88;5082882;28;20041;-81
2020/12/17 04:57:57;;;;;;;29.13;15.88;;;;;;;12.27;77.50;101273.53;5065961;28;20057;-80
2020/12/17 05:00:23;;;;;;;33.15;17.50;;;;;;;12.29;77.57;101272.59;5067977;28;20136;-80
2020/12/17 05:02:54;;;;;;;26.92;14.73;;;;;;;12.29;77.50;101277.91;5083791;28;20459;-81
2020/12/17 05:05:22;;;;;;;33.60;17.13;;;;;;;12.30;77.45;101276.97;5066759;28;20048;-83
2020/12/17 05:07:49;;;;;;;28.30;15.55;;;;;;;12.29;77.41;101278.78;5080772;28;20049;-81
2020/12/17 05:10:15;;;;;;;31.48;16.80;;;;;;;12.30;77.40;101287.59;5066355;28;20044;-80
2020/12/17 05:12:41;;;;;;;34.55;16.75;;;;;;;12.29;77.50;101292.06;5065701;28;20063;-80
2020/12/17 05:15:07;;;;;;;29.50;16.40;;;;;;;12.30;77.58;101282.28;5080890;28;20052;-79
2020/12/17 05:17:33;;;;;;;36.75;17.20;;;;;;;12.30;77.57;101293.78;5065799;28;20041;-80
2020/12/17 05:19:59;;;;;;;35.70;18.25;;;;;;;12.31;77.60;101297.31;5080600;28;20037;-80
2020/12/17 05:22:25;;;;;;;34.42;17.05;;;;;;;12.31;77.70;101299.97;5082235;28;20048;-80
2020/12/17 05:24:52;;;;;;;34.40;18.23;;;;;;;12.32;77.63;101306.97;5065548;28;20073;-80
2020/12/17 05:27:18;;;;;;;42.03;19.48;;;;;;;12.33;77.64;101298.94;5066486;28;20067;-80
2020/12/17 05:29:44;;;;;;;47.97;21.50;;;;;;;12.34;77.61;101305.09;5067576;28;20037;-81
2020/12/17 05:32:17;;;;;;;43.75;21.10;;;;;;;12.36;77.59;101308.59;5082978;28;20041;-81
2020/12/17 05:34:44;;;;;;;33.30;16.58;;;;;;;12.38;77.67;101317.34;5061464;28;20048;-80
2020/12/17 05:37:10;;;;;;;37.95;17.63;;;;;;;12.35;77.51;101317.47;5061141;28;20037;-80
2020/12/17 05:39:53;;;;;;;39.15;17.30;;;;;;;12.34;77.56;101315.72;5064496;28;20047;-79
2020/12/17 05:42:20;;;;;;;47.53;20.05;;;;;;;12.34;77.53;101321.03;5065762;28;20132;-80
2020/12/17 05:44:46;;;;;;;35.03;17.08;;;;;;;12.32;77.47;101325.56;5065166;28;20040;-80
2020/12/17 05:47:13;;;;;;;35.88;18.55;;;;;;;12.30;77.48;101327.44;5066537;28;20037;-80
2020/12/17 05:49:39;;;;;;;28.17;14.13;;;;;;;12.29;77.42;101328.38;5065537;28;20447;-80
2020/12/17 05:52:20;;;;;;;42.85;20.23;;;;;;;12.27;77.44;101336.41;5066376;28;20053;-80
2020/12/17 05:54:52;;;;;;;43.67;20.73;;;;;;;12.24;77.55;101348.03;5066359;28;20518;-80
2020/12/17 05:57:19;;;;;;;36.92;19.30;;;;;;;12.22;77.72;101333.97;5065175;28;20095;-79
2020/12/17 05:59:54;;;;;;;44.78;20.48;;;;;;;12.19;77.38;101328.78;5067307;28;20129;-80
2020/12/17 06:02:31;;;;;;;42.10;20.35;;;;;;;12.15;77.43;101327.19;5065294;28;20045;-80
2020/12/17 06:05:21;;;;;;;41.55;19.35;;;;;;;12.12;77.52;101340.59;5067367;28;20067;-80
2020/12/17 06:07:49;;;;;;;35.63;16.63;;;;;;;12.11;77.57;101341.53;5066941;28;20045;-80
2020/12/17 06:10:28;;;;;;;36.78;18.65;;;;;;;12.09;77.46;101351.34;5086226;28;20093;-80
2020/12/17 06:12:59;;;;;;;44.03;20.52;;;;;;;12.09;77.55;101354.00;5057020;28;20049;-80
2020/12/17 06:15:29;;;;;;;35.50;17.80;;;;;;;12.06;77.48;101362.13;5069335;28;20037;-80
2020/12/17 06:17:57;;;;;;;43.80;19.70;;;;;;;12.06;77.66;101373.59;5066549;28;20127;-80
2020/12/17 06:20:25;;;;;;;48.53;21.10;;;;;;;12.05;77.58;101368.34;5048435;28;20040;-80
2020/12/17 06:22:56;;;;;;;41.35;19.52;;;;;;;12.05;77.51;101384.25;5060938;28;20523;-80
2020/12/17 06:25:24;;;;;;;53.72;21.88;;;;;;;12.03;77.43;101375.50;5062647;28;20067;-80
2020/12/17 06:27:52;;;;;;;46.58;20.88;;;;;;;12.01;77.60;101388.00;5063681;28;20055;-80
2020/12/17 06:30:23;;;;;;;34.97;17.92;;;;;;;12.00;77.54;101391.59;5079735;28;20489;-80
2020/12/17 06:32:53;;;;;;;43.50;19.92;;;;;;;11.98;77.63;101399.59;5064199;28;20116;-80
2020/12/17 06:35:26;;;;;;;45.28;21.27;;;;;;;11.97;77.56;101402.31;5061006;28;20043;-83
2020/12/17 06:37:55;;;;;;;45.50;19.00;;;;;;;11.97;77.57;101410.28;5064158;28;20048;-80
2020/12/17 06:40:35;;;;;;;38.90;18.17;;;;;;;11.97;77.64;101418.25;5063444;28;20037;-80
2020/12/17 06:43:02;;;;;;;40.40;19.05;;;;;;;11.97;77.70;101428.88;5077705;28;20045;-80
2020/12/17 06:45:33;;;;;;;45.40;21.67;;;;;;;11.96;77.64;101443.06;5066561;28;20045;-80
2020/12/17 06:48:19;;;;;;;43.55;20.50;;;;;;;11.97;77.46;101455.41;5062394;28;20120;-81
2020/12/17 06:50:46;;;;;;;39.80;19.85;;;;;;;11.97;77.66;101458.06;5062257;28;20044;-80
2020/12/17 06:53:14;;;;;;;42.47;19.55;;;;;;;11.97;77.63;101463.38;5062802;28;20041;-80
2020/12/17 06:55:50;;;;;;;36.90;18.48;;;;;;;11.96;77.51;101456.31;5062208;28;20049;-80
2020/12/17 06:58:22;;;;;;;31.88;16.33;;;;;;;11.95;77.59;101463.44;5065369;28;20128;-80
2020/12/17 07:00:49;;;;;;;43.00;19.95;;;;;;;11.94;77.52;101468.81;5065094;28;20037;-81
2020/12/17 07:03:45;;;;;;;35.22;17.58;;;;;;;11.94;77.61;101476.75;5063406;28;20049;-80
2020/12/17 07:06:16;;;;;;;40.40;18.58;;;;;;;11.92;77.60;101483.94;5046864;28;20075;-81
2020/12/17 07:08:44;;;;;;;39.38;17.90;;;;;;;11.91;77.71;101472.47;5062782;28;20047;-82
2020/12/17 07:11:46;;;;;;;45.45;20.40;;;;;;;11.91;77.57;101482.22;5063346;28;20048;-79
2020/12/17 07:14:24;;;;;;;44.10;19.58;;;;;;;11.92;77.64;101484.78;5053947;28;20064;-80
2020/12/17 07:16:59;;;;;;;48.75;22.23;;;;;;;11.92;77.78;101494.53;5078860;28;20476;-80
2020/12/17 07:19:27;;;;;;;53.35;21.63;;;;;;;11.92;78.00;101494.53;5065369;28;20041;-80
2020/12/17 07:22:00;;;;;;;39.42;19.42;;;;;;;11.92;77.64;101499.84;5059354;28;20045;-80
2020/12/17 07:24:32;;;;;;;48.70;21.67;;;;;;;11.91;77.50;101503.44;5060240;28;20108;-80
2020/12/17 07:27:01;;;;;;;36.50;17.63;;;;;;;11.88;77.45;101499.97;5062157;28;20455;-79
2020/12/17 07:29:32;;;;;;;40.85;18.05;;;;;;;11.84;77.33;101500.97;5062965;28;20040;-81
2020/12/17 07:32:27;;;;;;;47.28;20.33;;;;;;;11.77;77.09;101518.09;5059164;28;20044;-80
2020/12/17 07:35:15;;;;;;;38.57;18.10;;;;;;;11.71;76.88;101518.31;5058521;28;20079;-80
2020/12/17 07:37:44;;;;;;;52.95;22.38;;;;;;;11.67;77.21;101516.72;5071648;28;20489;-80
2020/12/17 07:40:13;;;;;;;47.95;21.63;;;;;;;11.66;77.32;101520.31;5077710;28;20048;-80
2020/12/17 07:42:40;;;;;;;52.13;22.80;;;;;;;11.67;77.57;101532.63;5069395;28;20052;-82
2020/12/17 07:45:07;;;;;;;46.33;20.13;;;;;;;11.71;77.64;101550.16;5083132;28;20108;-78
2020/12/17 07:47:33;;;;;;;41.08;20.00;;;;;;;11.74;77.89;101555.38;5055634;28;20037;-79
2020/12/17 07:49:59;;;;;;;48.40;22.23;;;;;;;11.78;77.76;101556.97;5064535;28;20048;-80
2020/12/17 07:52:33;;;;;;;45.30;20.08;;;;;;;11.83;77.94;101560.31;5065124;28;20126;-80
2020/12/17 07:55:01;;;;;;;32.75;16.55;;;;;;;11.87;77.88;101561.06;5061370;28;20059;-80
2020/12/17 07:57:27;;;;;;;50.13;20.55;;;;;;;11.88;77.71;101566.31;5059004;28;20124;-80
2020/12/17 07:59:54;;;;;;;44.58;19.85;;;;;;;11.89;77.60;101569.84;5076572;28;20045;-80
2020/12/17 08:02:20;;;;;;;35.00;18.02;;;;;;;11.87;77.58;101572.53;5064592;28;20044;-80
2020/12/17 08:04:48;;;;;;;45.08;20.48;;;;;;;11.87;77.48;101577.84;5073731;28;20060;-80
2020/12/17 08:07:15;;;;;;;41.92;19.90;;;;;;;11.87;77.53;101577.84;5083658;28;20080;-81
2020/12/17 08:09:41;;;;;;;43.95;20.92;;;;;;;11.88;77.63;101584.91;5063534;28;20051;-81
2020/12/17 08:12:10;;;;;;;46.10;20.92;;;;;;;11.92;77.64;101590.09;5060281;28;20048;-81
2020/12/17 08:14:36;;;;;;;44.33;19.83;;;;;;;11.94;77.54;101585.59;5053495;28;20069;-81
2020/12/17 08:17:06;;;;;;;45.92;19.42;;;;;;;11.96;77.61;101591.72;5047159;28;20390;-81
2020/12/17 08:19:34;;;;;;;47.00;20.75;;;;;;;11.98;77.48;101593.41;5042233;28;20073;-81
2020/12/17 08:22:01;;;;;;;36.55;17.75;;;;;;;12.02;77.75;101596.81;5044757;28;20584;-81
2020/12/17 08:24:28;;;;;;;45.28;20.80;;;;;;;12.04;77.55;101602.91;5060103;28;20041;-81
2020/12/17 08:26:54;;;;;;;43.67;20.25;;;;;;;12.08;77.92;101601.88;5052051;28;20513;-81
2020/12/17 08:29:23;;;;;;;35.45;17.63;;;;;;;12.10;77.76;101610.63;5074199;28;20045;-81
2020/12/17 08:31:50;;;;;;;34.75;17.50;;;;;;;12.13;77.60;101613.19;5060062;28;20064;-81
2020/12/17 08:34:16;;;;;;;34.20;17.13;;;;;;;12.14;77.48;101612.25;5058839;28;20396;-82
2020/12/17 08:36:42;;;;;;;34.25;16.80;;;;;;;12.18;77.47;101616.50;5062841;28;20044;-81
2020/12/17 08:39:10;;;;;;;34.67;18.00;;;;;;;12.21;77.38;101615.53;5070328;28;20068;-81
2020/12/17 08:41:49;;;;;;;36.33;17.02;;;;;;;12.24;77.49;101621.59;5066764;28;20424;-81
2020/12/17 08:44:20;;;;;;;34.05;16.27;;;;;;;12.27;77.33;101623.25;5084845;28;20041;-81
2020/12/17 08:46:53;;;;;;;32.92;16.98;;;;;;;12.29;77.11;101625.84;5084245;28;20038;-81
2020/12/17 08:49:21;;;;;;;30.75;14.27;;;;;;;12.30;77.23;101627.56;5087973;28;20053;-81
2020/12/17 08:51:47;;;;;;;29.23;15.13;;;;;;;12.30;77.15;101628.47;5067765;28;20056;-81
2020/12/17 08:54:34;;;;;;;27.55;13.43;;;;;;;12.29;77.19;101637.34;5061237;28;20059;-81
2020/12/17 08:57:02;;;;;;;33.08;15.00;;;;;;;12.30;77.26;101638.19;5062135;28;20049;-81
2020/12/17 08:59:29;;;;;;;23.35;13.23;;;;;;;12.34;77.11;101634.47;5064820;28;20044;-81
2020/12/17 09:01:59;;;;;;;25.50;13.07;;;;;;;12.41;77.25;101635.97;5043923;28;20067;-80
2020/12/17 09:04:26;;;;;;;30.25;13.80;;;;;;;12.45;77.16;101637.56;5052078;28;20045;-81
2020/12/17 09:06:55;;;;;;;23.23;10.93;;;;;;;12.48;77.01;101641.91;5061547;28;20056;-81
2020/12/17 09:09:26;;;;;;;27.67;13.05;;;;;;;12.49;76.95;101643.63;5066256;28;20052;-81
2020/12/17 09:12:09;;;;;;;24.80;11.85;;;;;;;12.50;76.92;101651.56;5078518;28;20045;-82
2020/12/17 09:14:39;;;;;;;22.83;10.52;;;;;;;12.51;76.68;101661.25;5065285;28;20412;-81
2020/12/17 09:17:13;;;;;;;25.40;12.13;;;;;;;12.49;76.74;101660.47;5066038;28;20033;-81
2020/12/17 09:19:40;;;;;;;25.75;12.60;;;;;;;12.49;76.94;101676.41;5080969;28;20045;-81
2020/12/17 09:22:06;;;;;;;26.88;11.93;;;;;;;12.52;76.91;101670.94;5064822;28;20057;-81
2020/12/17 09:24:33;;;;;;;24.58;12.57;;;;;;;12.56;76.92;101672.56;5075319;28;20108;-81
2020/12/17 09:27:19;;;;;;;22.88;11.13;;;;;;;12.64;76.84;101681.09;5072900;28;20071;-81
2020/12/17 09:30:13;;;;;;;20.33;10.52;;;;;;;12.73;77.00;101684.31;5071170;28;20048;-81
2020/12/17 09:32:51;;;;;;;19.23;10.98;;;;;;;12.87;76.91;101697.06;5057151;28;20041;-81
2020/12/17 09:35:18;;;;;;;20.98;10.88;;;;;;;13.07;77.62;101693.56;5082145;28;20049;-81
2020/12/17 09:38:00;;;;;;;14.77;8.52;;;;;;;13.51;78.53;101699.69;5083886;28;20577;-82
2020/12/17 09:40:27;;;;;;;17.60;9.55;;;;;;;13.77;78.04;101701.19;5053207;28;20040;-81
2020/12/17 09:43:10;;;;;;;14.95;8.38;;;;;;;13.99;77.47;101695.78;5051327;28;20128;-82
2020/12/17 09:45:39;;;;;;;18.20;9.63;;;;;;;14.09;76.84;101696.22;5053999;28;20129;-82
2020/12/17 09:48:20;;;;;;;14.20;8.50;;;;;;;14.07;76.19;101700.75;5042981;28;20034;-82
2020/12/17 09:51:03;;;;;;;15.90;9.25;;;;;;;13.97;75.92;101707.41;5051563;28;20033;-81
2020/12/17 09:53:31;;;;;;;16.35;8.70;;;;;;;13.78;75.26;101707.38;5048187;28;20045;-81
2020/12/17 09:55:57;;;;;;;13.00;6.72;;;;;;;13.65;75.55;101717.69;5042920;28;20056;-82
2020/12/17 09:58:23;;;;;;;17.10;9.10;;;;;;;13.61;75.60;101710.78;5073130;28;20041;-81
2020/12/17 10:01:11;;;;;;;19.45;9.85;;;;;;;13.52;75.53;101724.47;5065334;22;20048;-87
2020/12/17 10:03:40;;;;;;;16.65;7.25;;;;;;;13.49;75.95;101714.00;5056844;28;20048;-87
2020/12/17 10:06:08;;;;;;;13.55;7.20;;;;;;;13.59;76.50;101721.50;5083029;28;20063;-87
2020/12/17 10:08:42;;;;;;;18.30;8.18;;;;;;;13.67;76.45;101715.81;5059070;28;20496;-87
2020/12/17 10:11:11;;;;;;;17.90;8.35;;;;;;;13.67;76.13;101721.16;5043162;28;20036;-87
2020/12/17 10:13:53;;;;;;;17.95;7.35;;;;;;;13.86;76.47;101725.66;5044688;28;20036;-87
2020/12/17 10:16:29;;;;;;;15.82;7.13;;;;;;;14.13;77.13;101723.56;5051599;28;20080;-86
2020/12/17 10:18:56;;;;;;;13.13;7.10;;;;;;;14.33;76.50;101735.94;5057912;28;20040;-87
2020/12/17 10:21:21;;;;;;;13.45;6.57;;;;;;;14.46;76.53;101731.78;5039956;28;20049;-85
2020/12/17 10:23:48;;;;;;;12.48;6.20;;;;;;;14.50;76.07;101736.03;5056815;28;20045;-87
2020/12/17 10:26:14;;;;;;;10.77;5.20;;;;;;;14.45;75.52;101739.84;5071171;28;20102;-87
2020/12/17 10:28:40;;;;;;;11.32;4.85;;;;;;;14.32;74.83;101739.56;5038536;28;20067;-87
2020/12/17 10:31:06;;;;;;;10.13;6.00;;;;;;;14.18;74.75;101749.06;5074586;28;20051;-88
2020/12/17 10:33:32;;;;;;;12.07;5.80;;;;;;;14.06;75.01;101749.59;5055515;28;20077;-88
2020/12/17 10:35:58;;;;;;;11.85;6.50;;;;;;;14.01;75.35;101746.28;5058052;28;20045;-88
2020/12/17 10:38:24;;;;;;;13.63;6.10;;;;;;;13.97;75.27;101755.34;5074408;28;20098;-87
2020/12/17 10:40:50;;;;;;;13.05;6.80;;;;;;;13.97;75.72;101760.69;5039823;28;20091;-88
2020/12/17 10:43:16;;;;;;;14.75;6.45;;;;;;;13.97;75.36;101755.34;5073038;28;20049;-88
2020/12/17 10:45:42;;;;;;;13.05;6.50;;;;;;;14.07;75.86;101762.00;5058637;28;20140;-87
2020/12/17 10:48:14;;;;;;;15.98;6.25;;;;;;;14.22;75.72;101763.09;5041344;28;20492;-87
2020/12/17 10:50:43;;;;;;;10.68;5.70;;;;;;;14.33;75.74;101759.94;5039017;28;20037;-89
2020/12/17 10:53:10;;;;;;;16.05;6.65;;;;;;;14.34;75.15;101753.69;5039873;28;20055;-86
2020/12/17 10:55:39;;;;;;;14.68;5.70;;;;;;;14.75;75.99;101753.56;5054092;28;20048;-86
2020/12/17 10:58:06;;;;;;;14.43;6.50;;;;;;;15.30;75.83;101756.19;5052581;28;20099;-87
2020/12/17 11:00:32;;;;;;;11.32;5.40;;;;;;;15.94;75.47;101748.50;5050975;28;20443;-87
2020/12/17 11:02:58;;;;;;;18.23;6.60;;;;;;;16.31;74.50;101759.84;5051330;28;20049;-88
2020/12/17 11:05:27;;;;;;;15.35;6.25;;;;;;;16.42;72.97;101762.81;5039173;28;20068;-86
2020/12/17 11:07:55;;;;;;;14.45;6.13;;;;;;;16.37;72.66;101767.56;5051767;28;20053;-87
2020/12/17 11:10:22;;;;;;;10.20;5.70;;;;;;;16.24;72.01;101763.84;5035125;28;20518;-87
2020/12/17 11:12:55;;;;;;;14.50;5.15;;;;;;;16.24;71.95;101759.34;5052272;28;20412;-88
2020/12/17 11:15:21;;;;;;;14.05;5.43;;;;;;;16.44;72.31;101765.41;5033999;28;20045;-85
2020/12/17 11:17:50;;;;;;;11.10;5.10;;;;;;;17.04;72.38;101759.41;5049287;28;20049;-88